createdAt,value
2018-01-20T00:00:09.231Z,0
2018-01-20T00:00:49.732Z,0
2018-01-20T00:01:30.272Z,0
2018-01-20T00:02:10.814Z,0
2018-01-20T00:02:53.347Z,0
2018-01-20T00:03:34.904Z,0
2018-01-20T00:04:16.194Z,0
2018-01-20T00:04:56.679Z,0
2018-01-20T00:05:37.679Z,0
2018-01-20T00:06:18.003Z,0
2018-01-20T00:06:58.656Z,0
2018-01-20T00:07:39.519Z,0
2018-01-20T00:08:20.796Z,0
2018-01-20T00:09:02.297Z,0
2018-01-20T00:09:43.039Z,0
2018-01-20T00:10:24.256Z,0
2018-01-20T00:11:05.637Z,0
2018-01-20T00:11:46.135Z,0
2018-01-20T00:12:26.880Z,0
2018-01-20T00:13:08.952Z,0
2018-01-20T00:13:49.515Z,0
2018-01-20T00:14:31.242Z,0
2018-01-20T00:15:11.922Z,0
2018-01-20T00:15:52.356Z,0
2018-01-20T00:16:33.765Z,0
2018-01-20T00:17:14.322Z,0
2018-01-20T00:17:55.731Z,0
2018-01-20T00:18:36.999Z,0
2018-01-20T00:19:17.486Z,0
2018-01-20T00:19:58.015Z,0
2018-01-20T00:20:38.594Z,0
2018-01-20T00:21:19.110Z,0
2018-01-20T00:21:59.631Z,0
2018-01-20T00:22:40.185Z,0
2018-01-20T00:23:22.030Z,0
2018-01-20T00:24:02.788Z,0
2018-01-20T00:24:43.315Z,0
2018-01-20T00:25:23.935Z,0
2018-01-20T00:26:04.510Z,0
2018-01-20T00:26:45.054Z,0
2018-01-20T00:27:27.040Z,0
2018-01-20T00:28:07.771Z,0
2018-01-20T00:28:49.142Z,0
2018-01-20T00:29:29.690Z,0
2018-01-20T00:30:10.258Z,0
2018-01-20T00:30:52.225Z,0
2018-01-20T00:31:32.783Z,0
2018-01-20T00:32:14.428Z,0
2018-01-20T00:32:55.828Z,0
2018-01-20T00:33:37.802Z,0
2018-01-20T00:34:19.193Z,0
2018-01-20T00:34:59.727Z,0
2018-01-20T00:35:40.247Z,0
2018-01-20T00:36:21.781Z,0
2018-01-20T00:37:02.684Z,0
2018-01-20T00:37:43.720Z,0
2018-01-20T00:38:25.811Z,0
2018-01-20T00:39:09.173Z,0
2018-01-20T00:39:49.825Z,0
2018-01-20T00:40:31.369Z,0
2018-01-20T00:41:12.068Z,0
2018-01-20T00:41:52.841Z,0
2018-01-20T00:42:33.417Z,0
2018-01-20T00:43:13.946Z,0
2018-01-20T00:43:55.394Z,0
2018-01-20T00:44:35.925Z,0
2018-01-20T00:45:16.506Z,0
2018-01-20T00:45:57.039Z,0
2018-01-20T00:46:38.719Z,0
2018-01-20T00:47:20.266Z,0
2018-01-20T00:48:01.206Z,0
2018-01-20T00:48:42.001Z,0
2018-01-20T00:49:22.530Z,0
2018-01-20T00:50:03.074Z,0
2018-01-20T00:50:43.733Z,0
2018-01-20T00:51:25.161Z,0
2018-01-20T00:52:05.775Z,0
2018-01-20T00:52:47.223Z,0
2018-01-20T00:53:28.580Z,0
2018-01-20T00:54:10.659Z,0
2018-01-20T00:54:52.768Z,0
2018-01-20T00:55:33.128Z,0
2018-01-20T00:58:02.640Z,0
2018-01-20T00:58:43.207Z,0
2018-01-20T00:59:23.750Z,0
2018-01-20T01:00:04.304Z,0
2018-01-20T01:00:44.904Z,0
2018-01-20T01:01:25.444Z,0
2018-01-20T01:02:05.952Z,0
2018-01-20T01:02:46.488Z,0
2018-01-20T01:03:27.050Z,0
2018-01-20T01:04:09.108Z,0
2018-01-20T01:04:49.347Z,0
2018-01-20T01:05:29.880Z,0
2018-01-20T01:06:10.441Z,0
2018-01-20T01:06:51.037Z,0
2018-01-20T01:07:31.569Z,0
2018-01-20T01:08:12.351Z,0
2018-01-20T01:08:52.876Z,0
2018-01-20T01:09:33.536Z,0
2018-01-20T01:10:14.116Z,0
2018-01-20T01:10:54.731Z,0
2018-01-20T01:11:35.278Z,0
2018-01-20T01:12:15.932Z,0
2018-01-20T01:12:56.412Z,0
2018-01-20T01:13:36.965Z,0
2018-01-20T01:14:21.380Z,0
2018-01-20T01:15:05.673Z,0
2018-01-20T01:15:49.812Z,0
2018-01-20T01:16:30.389Z,0
2018-01-20T01:17:18.597Z,0
2018-01-20T01:18:04.726Z,0
2018-01-20T01:18:52.928Z,0
2018-01-20T01:19:33.478Z,0
2018-01-20T01:20:14.010Z,0
2018-01-20T01:20:55.398Z,0
2018-01-20T01:21:35.900Z,0
2018-01-20T01:22:16.426Z,0
2018-01-20T01:22:56.946Z,0
2018-01-20T01:23:37.480Z,0
2018-01-20T01:24:17.965Z,0
2018-01-20T01:24:58.555Z,0
2018-01-20T01:25:39.071Z,0
2018-01-20T01:26:19.623Z,0
2018-01-20T01:27:00.181Z,0
2018-01-20T01:27:40.734Z,0
2018-01-20T01:28:21.238Z,0
2018-01-20T01:29:01.752Z,0
2018-01-20T01:29:42.285Z,0
2018-01-20T01:30:22.812Z,0
2018-01-20T01:31:03.363Z,0
2018-01-20T01:31:43.926Z,0
2018-01-20T01:32:24.478Z,0
2018-01-20T01:33:04.949Z,0
2018-01-20T01:33:45.511Z,0
2018-01-20T01:34:27.328Z,0
2018-01-20T01:35:08.933Z,0
2018-01-20T01:35:49.419Z,0
2018-01-20T01:36:29.984Z,0
2018-01-20T01:37:10.554Z,0
2018-01-20T01:37:51.059Z,0
2018-01-20T01:38:34.208Z,0
2018-01-20T01:39:14.752Z,0
2018-01-20T01:39:58.720Z,0
2018-01-20T01:40:40.849Z,0
2018-01-20T01:42:45.470Z,0
2018-01-20T01:43:28.147Z,0
2018-01-20T01:44:09.894Z,0
2018-01-20T01:44:50.142Z,0
2018-01-20T01:45:31.676Z,0
2018-01-20T01:46:12.305Z,0
2018-01-20T01:46:52.821Z,0
2018-01-20T01:47:33.379Z,0
2018-01-20T01:48:13.914Z,0
2018-01-20T01:50:19.926Z,0
2018-01-20T01:51:02.597Z,0
2018-01-20T01:53:25.031Z,0
2018-01-20T01:54:09.101Z,0
2018-01-20T01:54:53.746Z,0
2018-01-20T01:55:34.366Z,0
2018-01-20T01:56:14.848Z,0
2018-01-20T01:56:55.361Z,0
2018-01-20T01:57:36.825Z,0
2018-01-20T01:58:17.341Z,0
2018-01-20T01:58:57.882Z,0
2018-01-20T01:59:38.473Z,0
2018-01-20T02:02:01.946Z,0
2018-01-20T02:02:42.465Z,0
2018-01-20T02:03:22.991Z,0
2018-01-20T02:04:03.527Z,0
2018-01-20T02:04:45.928Z,0
2018-01-20T02:05:26.460Z,0
2018-01-20T02:06:07.106Z,0
2018-01-20T02:06:47.649Z,0
2018-01-20T02:07:28.222Z,0
2018-01-20T02:08:09.618Z,0
2018-01-20T02:08:50.218Z,0
2018-01-20T02:09:30.935Z,0
2018-01-20T02:10:11.442Z,0
2018-01-20T02:10:51.991Z,0
2018-01-20T02:11:32.505Z,0
2018-01-20T02:12:13.052Z,0
2018-01-20T02:12:53.569Z,0
2018-01-20T02:13:34.512Z,0
2018-01-20T02:14:15.651Z,0
2018-01-20T02:14:56.213Z,0
2018-01-20T02:15:37.079Z,0
2018-01-20T02:16:17.632Z,0
2018-01-20T02:16:58.155Z,0
2018-01-20T02:17:39.245Z,0
2018-01-20T02:18:20.614Z,0
2018-01-20T02:19:01.089Z,0
2018-01-20T02:19:41.648Z,0
2018-01-20T02:20:22.212Z,0
2018-01-20T02:21:02.734Z,0
2018-01-20T02:21:43.223Z,0
2018-01-20T02:22:23.771Z,0
2018-01-20T02:23:05.391Z,0
2018-01-20T02:23:51.280Z,0
2018-01-20T02:24:31.692Z,0
2018-01-20T02:25:12.275Z,0
2018-01-20T02:25:52.801Z,0
2018-01-20T02:26:33.339Z,0
2018-01-20T02:27:15.278Z,0
2018-01-20T02:27:55.811Z,0
2018-01-20T02:28:36.365Z,0
2018-01-20T02:29:16.904Z,0
2018-01-20T02:29:57.487Z,0
2018-01-20T02:30:38.028Z,0
2018-01-20T02:31:18.602Z,0
2018-01-20T02:32:00.733Z,0
2018-01-20T02:32:41.194Z,0
2018-01-20T02:33:21.811Z,0
2018-01-20T02:34:02.344Z,0
2018-01-20T02:34:42.847Z,0
2018-01-20T02:35:23.423Z,0
2018-01-20T02:36:04.021Z,0
2018-01-20T02:36:45.805Z,0
2018-01-20T02:37:27.097Z,0
2018-01-20T02:38:07.599Z,0
2018-01-20T02:38:48.146Z,0
2018-01-20T02:39:30.372Z,0
2018-01-20T02:41:45.441Z,0
2018-01-20T02:42:26.788Z,0
2018-01-20T02:43:07.413Z,0
2018-01-20T02:43:47.967Z,0
2018-01-20T02:44:28.487Z,0
2018-01-20T02:45:09.542Z,0
2018-01-20T02:45:50.931Z,0
2018-01-20T02:46:31.543Z,0
2018-01-20T02:47:12.092Z,0
2018-01-20T02:47:52.630Z,0
2018-01-20T02:48:33.124Z,0
2018-01-20T02:49:13.679Z,0
2018-01-20T02:49:54.773Z,0
2018-01-20T02:50:37.076Z,0
2018-01-20T02:51:17.647Z,0
2018-01-20T02:51:58.192Z,0
2018-01-20T02:52:38.795Z,0
2018-01-20T02:53:21.275Z,0
2018-01-20T02:54:01.855Z,0
2018-01-20T02:54:42.406Z,0
2018-01-20T02:55:23.047Z,0
2018-01-20T02:56:05.137Z,0
2018-01-20T02:56:45.928Z,0
2018-01-20T02:57:26.440Z,0
2018-01-20T02:58:07.073Z,0
2018-01-20T02:58:47.617Z,0
2018-01-20T02:59:28.172Z,0
2018-01-20T03:00:08.728Z,0
2018-01-20T03:00:50.144Z,0
2018-01-20T03:01:31.130Z,0
2018-01-20T03:02:11.706Z,0
2018-01-20T03:02:52.235Z,0
2018-01-20T03:03:32.792Z,0
2018-01-20T03:04:13.399Z,0
2018-01-20T03:04:54.037Z,0
2018-01-20T03:05:37.117Z,0
2018-01-20T03:06:17.708Z,0
2018-01-20T03:06:58.316Z,0
2018-01-20T03:07:38.859Z,0
2018-01-20T03:08:20.985Z,0
2018-01-20T03:09:01.577Z,0
2018-01-20T03:09:42.198Z,0
2018-01-20T03:10:22.844Z,0
2018-01-20T03:11:03.481Z,0
2018-01-20T03:11:44.070Z,0
2018-01-20T03:12:24.657Z,0
2018-01-20T03:13:05.220Z,0
2018-01-20T03:13:45.788Z,0
2018-01-20T03:14:26.295Z,0
2018-01-20T03:15:06.891Z,0
2018-01-20T03:15:47.481Z,0
2018-01-20T03:16:27.991Z,0
2018-01-20T03:17:08.577Z,0
2018-01-20T03:17:49.180Z,0
2018-01-20T03:18:29.748Z,0
2018-01-20T03:19:10.282Z,0
2018-01-20T03:19:50.890Z,0
2018-01-20T03:20:31.405Z,0
2018-01-20T03:21:11.990Z,0
2018-01-20T03:21:52.538Z,0
2018-01-20T03:22:33.108Z,0
2018-01-20T03:23:13.719Z,0
2018-01-20T03:23:54.257Z,0
2018-01-20T03:24:34.750Z,0
2018-01-20T03:25:15.359Z,0
2018-01-20T03:25:55.977Z,0
2018-01-20T03:26:36.543Z,0
2018-01-20T03:27:18.094Z,0
2018-01-20T03:27:58.679Z,0
2018-01-20T03:28:39.222Z,0
2018-01-20T03:29:22.350Z,0
2018-01-20T03:30:02.857Z,0
2018-01-20T03:30:43.475Z,0
2018-01-20T03:31:24.021Z,0
2018-01-20T03:32:04.627Z,0
2018-01-20T03:32:45.196Z,0
2018-01-20T03:33:25.689Z,0
2018-01-20T03:34:06.250Z,0
2018-01-20T03:34:46.817Z,0
2018-01-20T03:35:27.513Z,0
2018-01-20T03:36:08.088Z,0
2018-01-20T03:36:48.662Z,0
2018-01-20T03:37:29.808Z,0
2018-01-20T03:38:10.332Z,0
2018-01-20T03:38:50.876Z,0
2018-01-20T03:39:31.405Z,0
2018-01-20T03:40:12.042Z,0
2018-01-20T03:40:52.564Z,0
2018-01-20T03:41:34.160Z,0
2018-01-20T03:42:14.734Z,0
2018-01-20T03:42:55.312Z,0
2018-01-20T03:43:35.926Z,0
2018-01-20T03:44:16.775Z,0
2018-01-20T03:44:57.276Z,0
2018-01-20T03:45:37.862Z,0
2018-01-20T03:46:19.278Z,0
2018-01-20T03:47:01.677Z,0
2018-01-20T03:47:42.657Z,0
2018-01-20T03:48:23.221Z,0
2018-01-20T03:49:03.797Z,0
2018-01-20T03:49:44.355Z,0
2018-01-20T03:50:24.883Z,0
2018-01-20T03:51:06.385Z,0
2018-01-20T03:51:46.958Z,0
2018-01-20T03:52:27.566Z,0
2018-01-20T03:53:08.145Z,0
2018-01-20T03:53:48.703Z,0
2018-01-20T03:54:29.276Z,0
2018-01-20T03:55:10.070Z,0
2018-01-20T03:55:51.141Z,0
2018-01-20T03:56:31.698Z,0
2018-01-20T03:57:12.876Z,0
2018-01-20T03:57:53.411Z,0
2018-01-20T03:58:33.962Z,0
2018-01-20T03:59:14.513Z,0
2018-01-20T03:59:55.125Z,0
2018-01-20T04:00:35.699Z,0
2018-01-20T04:01:16.271Z,0
2018-01-20T04:01:56.888Z,0
2018-01-20T04:02:37.423Z,0
2018-01-20T04:03:18.002Z,0
2018-01-20T04:03:58.631Z,0
2018-01-20T04:04:41.833Z,0
2018-01-20T04:05:22.432Z,0
2018-01-20T04:06:03.003Z,0
2018-01-20T04:06:43.541Z,0
2018-01-20T04:07:24.196Z,0
2018-01-20T04:08:04.736Z,0
2018-01-20T04:08:45.290Z,0
2018-01-20T04:09:25.793Z,0
2018-01-20T04:10:06.397Z,0
2018-01-20T04:10:47.040Z,0
2018-01-20T04:11:27.599Z,0
2018-01-20T04:12:08.174Z,0
2018-01-20T04:12:48.744Z,0
2018-01-20T04:13:29.295Z,0
2018-01-20T04:14:09.830Z,0
2018-01-20T04:14:50.372Z,0
2018-01-20T04:15:31.019Z,0
2018-01-20T04:16:11.547Z,0
2018-01-20T04:16:52.067Z,0
2018-01-20T04:17:32.639Z,0
2018-01-20T04:18:13.203Z,0
2018-01-20T04:18:53.772Z,0
2018-01-20T04:19:34.316Z,0
2018-01-20T04:20:14.897Z,0
2018-01-20T04:20:55.456Z,0
2018-01-20T04:21:36.001Z,0
2018-01-20T04:22:17.064Z,0
2018-01-20T04:22:57.201Z,0
2018-01-20T04:23:37.709Z,0
2018-01-20T04:24:18.235Z,0
2018-01-20T04:24:58.780Z,0
2018-01-20T04:25:39.344Z,0
2018-01-20T04:26:19.895Z,0
2018-01-20T04:27:00.477Z,0
2018-01-20T04:27:41.043Z,0
2018-01-20T04:28:21.624Z,0
2018-01-20T04:29:02.197Z,0
2018-01-20T04:29:42.802Z,0
2018-01-20T04:30:23.345Z,0
2018-01-20T04:31:03.989Z,0
2018-01-20T04:31:44.491Z,0
2018-01-20T04:32:25.061Z,0
2018-01-20T04:33:05.722Z,0
2018-01-20T04:33:46.333Z,0
2018-01-20T04:34:26.867Z,0
2018-01-20T04:35:07.423Z,0
2018-01-20T04:35:47.982Z,0
2018-01-20T04:36:28.536Z,0
2018-01-20T04:37:09.151Z,0
2018-01-20T04:37:49.719Z,0
2018-01-20T04:38:30.270Z,0
2018-01-20T04:39:10.840Z,0
2018-01-20T04:39:51.383Z,0
2018-01-20T04:40:31.974Z,0
2018-01-20T04:41:12.519Z,0
2018-01-20T04:41:53.112Z,0
2018-01-20T04:42:33.666Z,0
2018-01-20T04:43:14.286Z,0
2018-01-20T04:43:54.844Z,0
2018-01-20T04:44:35.402Z,0
2018-01-20T04:45:15.891Z,0
2018-01-20T04:45:56.499Z,0
2018-01-20T04:46:37.004Z,0
2018-01-20T04:47:17.696Z,0
2018-01-20T04:47:58.294Z,0
2018-01-20T04:48:38.858Z,0
2018-01-20T04:49:19.409Z,0
2018-01-20T04:50:00.073Z,0
2018-01-20T04:50:40.562Z,0
2018-01-20T04:51:21.148Z,0
2018-01-20T04:52:01.707Z,0
2018-01-20T04:52:42.291Z,0
2018-01-20T04:53:22.850Z,0
2018-01-20T04:54:03.384Z,0
2018-01-20T04:54:43.912Z,0
2018-01-20T04:55:24.504Z,0
2018-01-20T04:56:05.091Z,0
2018-01-20T04:56:45.662Z,0
2018-01-20T04:57:26.235Z,0
2018-01-20T04:58:06.815Z,0
2018-01-20T04:58:47.385Z,0
2018-01-20T04:59:27.937Z,0
2018-01-20T05:00:08.555Z,0
2018-01-20T05:00:49.129Z,0
2018-01-20T05:01:29.767Z,0
2018-01-20T05:02:10.342Z,0
2018-01-20T05:02:50.922Z,0
2018-01-20T05:03:31.477Z,0
2018-01-20T05:04:11.987Z,0
2018-01-20T05:04:52.601Z,0
2018-01-20T05:05:33.121Z,0
2018-01-20T05:06:13.701Z,0
2018-01-20T05:06:54.215Z,0
2018-01-20T05:07:34.778Z,0
2018-01-20T05:08:15.373Z,0
2018-01-20T05:08:55.982Z,0
2018-01-20T05:09:36.575Z,0
2018-01-20T05:10:17.175Z,0
2018-01-20T05:10:57.775Z,0
2018-01-20T05:11:38.321Z,0
2018-01-20T05:12:18.890Z,0
2018-01-20T05:12:59.464Z,0
2018-01-20T05:13:41.656Z,0
2018-01-20T05:14:22.296Z,0
2018-01-20T05:15:02.853Z,0
2018-01-20T05:15:43.401Z,0
2018-01-20T05:16:23.957Z,0
2018-01-20T05:17:04.625Z,0
2018-01-20T05:17:45.202Z,0
2018-01-20T05:18:25.796Z,0
2018-01-20T05:19:06.404Z,0
2018-01-20T05:19:46.910Z,0
2018-01-20T05:20:27.503Z,0
2018-01-20T05:21:08.091Z,0
2018-01-20T05:21:48.614Z,0
2018-01-20T05:22:29.154Z,0
2018-01-20T05:23:09.787Z,0
2018-01-20T05:23:50.364Z,0
2018-01-20T05:24:30.890Z,0
2018-01-20T05:25:11.459Z,0
2018-01-20T05:25:51.963Z,0
2018-01-20T05:26:32.578Z,0
2018-01-20T05:27:13.106Z,0
2018-01-20T05:27:53.646Z,0
2018-01-20T05:28:34.243Z,0
2018-01-20T05:29:14.839Z,0
2018-01-20T05:29:55.481Z,0
2018-01-20T05:30:35.970Z,0
2018-01-20T05:31:16.596Z,0
2018-01-20T05:31:57.116Z,0
2018-01-20T05:32:37.718Z,0
2018-01-20T05:33:18.263Z,0
2018-01-20T05:33:58.881Z,0
2018-01-20T05:34:39.423Z,0
2018-01-20T05:35:20.018Z,0
2018-01-20T05:36:00.624Z,0
2018-01-20T05:36:41.192Z,0
2018-01-20T05:37:21.849Z,0
2018-01-20T05:38:02.430Z,0
2018-01-20T05:38:42.966Z,0
2018-01-20T05:39:23.578Z,0
2018-01-20T05:40:04.075Z,0
2018-01-20T05:40:44.582Z,0
2018-01-20T05:41:25.179Z,0
2018-01-20T05:42:05.719Z,0
2018-01-20T05:42:46.317Z,0
2018-01-20T05:43:26.867Z,0
2018-01-20T05:44:07.394Z,0
2018-01-20T05:44:47.975Z,0
2018-01-20T05:45:28.554Z,0
2018-01-20T05:46:09.054Z,0
2018-01-20T05:46:49.655Z,0
2018-01-20T05:47:30.229Z,0
2018-01-20T05:48:10.902Z,0
2018-01-20T05:48:51.514Z,0
2018-01-20T05:49:32.086Z,0
2018-01-20T05:50:12.665Z,0
2018-01-20T05:50:53.301Z,0
2018-01-20T05:51:33.883Z,0
2018-01-20T05:52:14.421Z,0
2018-01-20T05:52:54.982Z,0
2018-01-20T05:53:35.477Z,0
2018-01-20T05:54:16.076Z,0
2018-01-20T05:54:57.597Z,0
2018-01-20T05:55:37.231Z,0
2018-01-20T05:56:17.785Z,0
2018-01-20T05:56:58.338Z,0
2018-01-20T05:57:38.917Z,0
2018-01-20T05:58:19.520Z,0
2018-01-20T05:59:00.127Z,0
2018-01-20T05:59:40.626Z,0
2018-01-20T06:00:21.238Z,0
2018-01-20T06:01:01.768Z,0
2018-01-20T06:01:42.348Z,0
2018-01-20T06:02:22.986Z,0
2018-01-20T06:03:03.561Z,0
2018-01-20T06:03:44.086Z,0
2018-01-20T06:04:24.657Z,0
2018-01-20T06:05:05.237Z,0
2018-01-20T06:05:45.807Z,0
2018-01-20T06:06:26.347Z,0
2018-01-20T06:07:06.976Z,0
2018-01-20T06:07:47.536Z,0
2018-01-20T06:08:28.091Z,0
2018-01-20T06:09:08.682Z,0
2018-01-20T06:09:49.218Z,0
2018-01-20T06:10:29.801Z,0
2018-01-20T06:11:10.372Z,0
2018-01-20T06:11:50.974Z,0
2018-01-20T06:12:31.437Z,0
2018-01-20T06:13:12.035Z,0
2018-01-20T06:13:52.588Z,0
2018-01-20T06:14:33.151Z,0
2018-01-20T06:15:13.762Z,0
2018-01-20T06:15:54.278Z,0
2018-01-20T06:16:34.914Z,0
2018-01-20T06:17:15.559Z,0
2018-01-20T06:17:56.186Z,0
2018-01-20T06:18:36.843Z,0
2018-01-20T06:19:17.324Z,0
2018-01-20T06:19:57.997Z,0
2018-01-20T06:20:38.566Z,0
2018-01-20T06:21:19.053Z,0
2018-01-20T06:21:59.726Z,0
2018-01-20T06:22:40.181Z,0
2018-01-20T06:23:20.781Z,0
2018-01-20T06:24:01.363Z,0
2018-01-20T06:24:41.889Z,0
2018-01-20T06:25:23.194Z,0
2018-01-20T06:26:03.812Z,0
2018-01-20T06:26:44.373Z,0
2018-01-20T06:27:24.995Z,0
2018-01-20T06:28:05.565Z,0
2018-01-20T06:28:46.161Z,0
2018-01-20T06:29:26.728Z,0
2018-01-20T06:30:07.269Z,0
2018-01-20T06:30:47.870Z,0
2018-01-20T06:31:28.390Z,0
2018-01-20T06:32:08.926Z,0
2018-01-20T06:32:49.520Z,0
2018-01-20T06:33:30.022Z,0
2018-01-20T06:34:10.607Z,0
2018-01-20T06:34:51.152Z,0
2018-01-20T06:35:31.715Z,0
2018-01-20T06:36:12.308Z,0
2018-01-20T06:36:52.847Z,0
2018-01-20T06:37:33.418Z,0
2018-01-20T06:38:14.023Z,0
2018-01-20T06:38:54.596Z,0
2018-01-20T06:39:35.190Z,0
2018-01-20T06:40:15.841Z,0
2018-01-20T06:40:56.401Z,0
2018-01-20T06:41:36.955Z,0
2018-01-20T06:42:17.521Z,0
2018-01-20T06:42:58.165Z,0
2018-01-20T06:43:38.666Z,0
2018-01-20T06:44:19.299Z,0
2018-01-20T06:44:59.856Z,0
2018-01-20T06:45:40.575Z,0
2018-01-20T06:46:21.148Z,0
2018-01-20T06:47:01.702Z,0
2018-01-20T06:47:42.219Z,0
2018-01-20T06:48:22.864Z,0
2018-01-20T06:49:03.409Z,0
2018-01-20T06:49:44.031Z,0
2018-01-20T06:50:24.606Z,0
2018-01-20T06:51:05.209Z,0
2018-01-20T06:51:45.831Z,0
2018-01-20T06:52:26.409Z,0
2018-01-20T06:53:07.010Z,0
2018-01-20T06:53:47.572Z,0
2018-01-20T06:54:28.215Z,0
2018-01-20T06:55:08.831Z,0
2018-01-20T06:55:49.360Z,0
2018-01-20T06:56:29.986Z,0
2018-01-20T06:57:10.545Z,0
2018-01-20T06:57:51.092Z,0
2018-01-20T06:58:31.691Z,0
2018-01-20T06:59:12.226Z,0
2018-01-20T07:01:28.214Z,0
2018-01-20T07:02:08.716Z,0
2018-01-20T07:02:49.240Z,0
2018-01-20T07:03:29.901Z,0
2018-01-20T07:04:10.435Z,0
2018-01-20T07:04:51.006Z,0
2018-01-20T07:05:31.617Z,0
2018-01-20T07:30:36.394Z,5
2018-01-20T07:31:16.988Z,5
2018-01-20T07:31:58.108Z,5
2018-01-20T07:32:38.167Z,5
2018-01-20T07:33:18.775Z,5
2018-01-20T07:33:59.275Z,5
2018-01-20T07:34:39.861Z,5
2018-01-20T07:35:22.299Z,10
2018-01-20T07:36:02.898Z,10
2018-01-20T07:36:43.419Z,10
2018-01-20T07:37:23.994Z,10
2018-01-20T07:38:04.581Z,10
2018-01-20T07:38:45.129Z,10
2018-01-20T07:39:25.753Z,10
2018-01-20T07:40:06.260Z,10
2018-01-20T07:40:46.840Z,10
2018-01-20T07:41:27.409Z,10
2018-01-20T07:42:07.922Z,10
2018-01-20T07:42:48.474Z,10
2018-01-20T07:43:29.003Z,10
2018-01-20T07:44:09.651Z,10
2018-01-20T07:44:50.230Z,10
2018-01-20T07:45:30.789Z,10
2018-01-20T07:46:11.360Z,10
2018-01-20T07:46:51.901Z,5
2018-01-20T07:47:32.416Z,5
2018-01-20T07:48:12.989Z,5
2018-01-20T07:48:53.513Z,5
2018-01-20T07:49:34.056Z,5
2018-01-20T07:50:14.608Z,10
2018-01-20T07:50:55.131Z,10
2018-01-20T07:51:35.669Z,10
2018-01-20T07:52:16.199Z,10
2018-01-20T07:52:56.788Z,10
2018-01-20T07:53:37.267Z,5
2018-01-20T07:54:18.513Z,5
2018-01-20T07:54:59.039Z,5
2018-01-20T07:55:39.586Z,5
2018-01-20T07:56:20.171Z,5
2018-01-20T07:57:00.635Z,10
2018-01-20T07:57:41.235Z,10
2018-01-20T07:58:21.748Z,10
2018-01-20T07:59:02.332Z,10
2018-01-20T07:59:42.889Z,10
2018-01-20T08:00:23.451Z,10
2018-01-20T08:01:04.087Z,10
2018-01-20T08:01:44.694Z,10
2018-01-20T08:02:25.227Z,10
2018-01-20T08:03:05.795Z,10
2018-01-20T08:03:46.387Z,15
2018-01-20T08:04:26.968Z,15
2018-01-20T08:05:07.600Z,15
2018-01-20T08:05:48.221Z,15
2018-01-20T08:06:28.880Z,15
2018-01-20T08:07:09.460Z,15
2018-01-20T08:07:49.877Z,15
2018-01-20T08:08:30.443Z,15
2018-01-20T08:09:11.007Z,20
2018-01-20T08:09:51.574Z,20
2018-01-20T08:10:32.155Z,20
2018-01-20T08:11:12.709Z,25
2018-01-20T08:11:53.224Z,30
2018-01-20T08:12:33.783Z,30
2018-01-20T08:13:14.320Z,35
2018-01-20T08:13:54.914Z,35
2018-01-20T08:14:35.495Z,35
2018-01-20T08:15:16.114Z,35
2018-01-20T08:15:56.622Z,30
2018-01-20T08:16:37.169Z,30
2018-01-20T08:17:17.722Z,30
2018-01-20T08:17:58.290Z,30
2018-01-20T08:18:38.829Z,35
2018-01-20T08:19:19.437Z,35
2018-01-20T08:19:59.957Z,35
2018-01-20T08:20:40.481Z,35
2018-01-20T08:21:21.092Z,35
2018-01-20T08:22:01.815Z,35
2018-01-20T08:22:42.330Z,40
2018-01-20T08:23:22.875Z,40
2018-01-20T08:24:03.395Z,45
2018-01-20T08:24:43.996Z,45
2018-01-20T08:25:24.631Z,45
2018-01-20T08:26:05.138Z,50
2018-01-20T08:26:45.674Z,45
2018-01-20T08:27:27.984Z,45
2018-01-20T08:28:08.567Z,50
2018-01-20T08:28:49.129Z,50
2018-01-20T08:29:29.632Z,50
2018-01-20T08:30:10.198Z,55
2018-01-20T08:30:50.982Z,55
2018-01-20T08:31:31.571Z,55
2018-01-20T08:32:12.158Z,55
2018-01-20T08:32:52.686Z,55
2018-01-20T08:33:33.218Z,55
2018-01-20T08:34:16.534Z,55
2018-01-20T08:34:54.597Z,55
2018-01-20T08:35:35.119Z,55
2018-01-20T08:36:15.782Z,55
2018-01-20T08:36:56.253Z,50
2018-01-20T08:37:36.821Z,50
2018-01-20T08:38:17.320Z,45
2018-01-20T08:38:57.901Z,50
2018-01-20T08:39:40.135Z,55
2018-01-20T08:40:20.730Z,55
2018-01-20T08:41:01.339Z,60
2018-01-20T08:41:44.241Z,60
2018-01-20T08:42:24.723Z,60
2018-01-20T08:43:05.283Z,60
2018-01-20T08:43:45.844Z,60
2018-01-20T08:44:26.386Z,60
2018-01-20T08:45:07.041Z,65
2018-01-20T08:45:47.597Z,65
2018-01-20T08:46:28.178Z,65
2018-01-20T08:47:08.842Z,70
2018-01-20T08:47:49.430Z,70
2018-01-20T08:48:29.989Z,75
2018-01-20T08:49:10.575Z,75
2018-01-20T08:49:51.160Z,80
2018-01-20T08:50:31.794Z,80
2018-01-20T08:51:12.347Z,80
2018-01-20T08:51:52.965Z,80
2018-01-20T08:52:33.495Z,75
2018-01-20T08:53:14.117Z,75
2018-01-20T08:53:54.709Z,75
2018-01-20T08:54:35.231Z,70
2018-01-20T08:55:15.892Z,65
2018-01-20T08:55:56.486Z,60
2018-01-20T08:56:37.008Z,55
2018-01-20T08:57:17.689Z,55
2018-01-20T08:57:58.233Z,55
2018-01-20T08:58:38.788Z,55
2018-01-20T08:59:19.415Z,55
2018-01-20T08:59:59.996Z,55
2018-01-20T09:00:40.659Z,55
2018-01-20T09:01:23.417Z,60
2018-01-20T09:02:03.942Z,60
2018-01-20T09:02:44.563Z,60
2018-01-20T09:03:25.151Z,60
2018-01-20T09:04:05.718Z,60
2018-01-20T09:04:46.294Z,55
2018-01-20T09:05:28.686Z,50
2018-01-20T09:06:09.232Z,45
2018-01-20T09:06:49.845Z,40
2018-01-20T09:07:30.398Z,40
2018-01-20T09:08:11.071Z,35
2018-01-20T09:08:51.629Z,30
2018-01-20T09:09:32.191Z,25
2018-01-20T09:10:12.789Z,20
2018-01-20T09:10:53.344Z,20
2018-01-20T09:11:34.004Z,15
2018-01-20T09:12:14.494Z,20
2018-01-20T09:12:55.096Z,20
2018-01-20T09:13:35.624Z,20
2018-01-20T09:14:16.226Z,20
2018-01-20T09:14:56.763Z,20
2018-01-20T09:15:37.306Z,20
2018-01-20T09:16:17.960Z,25
2018-01-20T09:16:58.856Z,25
2018-01-20T09:18:59.066Z,25
2018-01-20T09:19:39.606Z,25
2018-01-20T09:20:20.138Z,25
2018-01-20T09:21:01.632Z,25
2018-01-20T09:21:41.274Z,20
2018-01-20T09:22:21.778Z,25
2018-01-20T09:23:02.366Z,25
2018-01-20T09:23:42.873Z,30
2018-01-20T09:24:23.632Z,30
2018-01-20T09:25:04.156Z,30
2018-01-20T09:25:44.649Z,30
2018-01-20T09:26:25.179Z,30
2018-01-20T09:27:05.708Z,30
2018-01-20T09:27:46.256Z,35
2018-01-20T09:28:26.807Z,35
2018-01-20T09:29:07.362Z,35
2018-01-20T09:29:47.906Z,35
2018-01-20T09:30:28.468Z,35
2018-01-20T09:31:09.032Z,35
2018-01-20T09:31:49.594Z,35
2018-01-20T09:32:30.115Z,35
2018-01-20T09:33:10.646Z,40
2018-01-20T09:33:51.206Z,40
2018-01-20T09:34:31.769Z,35
2018-01-20T09:35:12.483Z,35
2018-01-20T09:35:53.036Z,35
2018-01-20T09:36:33.585Z,30
2018-01-20T09:37:14.116Z,30
2018-01-20T09:37:54.660Z,35
2018-01-20T09:38:35.214Z,30
2018-01-20T09:39:15.893Z,25
2018-01-20T09:39:56.394Z,25
2018-01-20T09:40:36.939Z,25
2018-01-20T09:41:17.469Z,25
2018-01-20T09:41:58.048Z,25
2018-01-20T09:42:38.615Z,30
2018-01-20T09:43:19.212Z,30
2018-01-20T09:43:59.770Z,30
2018-01-20T09:44:40.295Z,30
2018-01-20T09:45:20.852Z,30
2018-01-20T09:46:01.406Z,30
2018-01-20T09:46:42.069Z,30
2018-01-20T09:47:22.610Z,35
2018-01-20T09:48:03.213Z,35
2018-01-20T09:48:43.780Z,30
2018-01-20T09:49:24.272Z,35
2018-01-20T09:50:04.926Z,35
2018-01-20T09:50:45.528Z,35
2018-01-20T09:51:26.042Z,35
2018-01-20T09:52:06.704Z,35
2018-01-20T09:52:47.648Z,35
2018-01-20T09:53:28.168Z,40
2018-01-20T09:54:08.749Z,40
2018-01-20T09:54:49.327Z,40
2018-01-20T09:55:29.804Z,40
2018-01-20T09:56:10.923Z,40
2018-01-20T09:56:51.453Z,40
2018-01-20T09:57:32.013Z,40
2018-01-20T09:58:12.589Z,40
2018-01-20T09:58:53.185Z,40
2018-01-20T09:59:33.688Z,40
2018-01-20T10:00:14.278Z,40
2018-01-20T10:00:54.758Z,40
2018-01-20T10:01:35.319Z,40
2018-01-20T10:02:15.870Z,40
2018-01-20T10:02:56.454Z,40
2018-01-20T10:03:37.040Z,40
2018-01-20T10:04:17.571Z,40
2018-01-20T10:04:58.092Z,45
2018-01-20T10:05:38.772Z,45
2018-01-20T10:06:19.359Z,45
2018-01-20T10:06:59.951Z,50
2018-01-20T10:07:40.700Z,50
2018-01-20T10:08:21.066Z,50
2018-01-20T10:09:01.621Z,50
2018-01-20T10:09:42.232Z,50
2018-01-20T10:10:22.706Z,50
2018-01-20T10:11:03.284Z,55
2018-01-20T10:11:43.824Z,55
2018-01-20T10:12:24.337Z,55
2018-01-20T10:13:04.926Z,55
2018-01-20T10:13:45.474Z,55
2018-01-20T10:14:25.986Z,60
2018-01-20T10:15:06.540Z,65
2018-01-20T10:15:47.088Z,70
2018-01-20T10:16:27.650Z,70
2018-01-20T10:17:08.214Z,70
2018-01-20T10:17:48.932Z,70
2018-01-20T10:18:29.311Z,70
2018-01-20T10:19:09.876Z,70
2018-01-20T10:19:50.387Z,70
2018-01-20T10:20:30.941Z,70
2018-01-20T10:21:11.514Z,70
2018-01-20T10:21:52.176Z,70
2018-01-20T10:22:32.760Z,75
2018-01-20T10:23:13.254Z,75
2018-01-20T10:23:53.822Z,80
2018-01-20T10:24:34.379Z,80
2018-01-20T10:25:15.016Z,80
2018-01-20T10:25:55.483Z,80
2018-01-20T10:26:36.241Z,80
2018-01-20T10:27:16.821Z,75
2018-01-20T10:27:57.407Z,70
2018-01-20T10:28:37.936Z,70
2018-01-20T10:29:18.428Z,70
2018-01-20T10:29:58.982Z,70
2018-01-20T10:30:39.502Z,70
2018-01-20T10:31:20.066Z,70
2018-01-20T10:32:00.544Z,75
2018-01-20T10:32:41.129Z,75